»·PEaware :: N648CR KPRC-KGCN

N648CR :: KPRC-KGCN

FLIGHT INFORMATION

Flight Status: Arrived
Operator: Privately registered:
United States
More flights under this callsign
Pilot: James D. (19799)
Aircraft: CESSNA 172 SKYHAWK
(C172)
More flights by this aircraft type
Origin: KPRC Love
United States
Destination: KGCN Grand Canyon Natl Park
United States
More flights between these airports :: More routes between these airports
Route: +
File this flight plan on PilotEdge
Remarks:
Altitude:
(Current/Filed)
9,500ft
Speed:
(Current/Filed)
0kts
Departed: 11-Jan-19 04:06 PM
Arrived: 11-Jan-19 04:52 PM
Distance/Time
Traveled:
79nm/0:46
Distance/Time
To Go:
Arrived

Flight Plot

Page will automatically refresh every two minutes.

Flight plan parsing failed; only flown route is shown


Map Options




Map Legend


Flown Route
Filed Route
Departure Airport
Arrival Airport
Navaid (VOR, NDB)
Fix

Horizontal Profiles

Position Reports

Time Latitude Longitude Heading Altitude Ground
Speed
11-Jan-19 16:05 34.725119 -112.366335 339 8759ft 69kts
11-Jan-19 16:06 34.743352 -112.374097 339 9220ft 74kts
11-Jan-19 16:07 34.764251 -112.382912 340 9492ft 92kts
11-Jan-19 16:08 34.791117 -112.389089 357 9488ft 103kts
11-Jan-19 16:09 34.819959 -112.384756 3 9488ft 105kts
11-Jan-19 16:09 34.841686 -112.380361 4 9488ft 105kts
11-Jan-19 16:10 34.870611 -112.374382 4 9488ft 105kts
11-Jan-19 16:11 34.899677 -112.368344 4 9488ft 105kts
11-Jan-19 16:13 34.933575 -112.361304 4 9488ft 106kts
11-Jan-19 16:13 34.958051 -112.356217 5 9488ft 107kts
11-Jan-19 16:14 34.987729 -112.350043 5 9488ft 108kts
11-Jan-19 16:15 35.017513 -112.343844 6 9488ft 109kts
11-Jan-19 16:16 35.047633 -112.337567 6 9488ft 110kts
11-Jan-19 16:17 35.077949 -112.331239 6 9488ft 110kts
11-Jan-19 16:18 35.108050 -112.324957 6 9491ft 110kts
11-Jan-19 16:19 35.138605 -112.318643 5 9491ft 111kts
11-Jan-19 16:20 35.169206 -112.312338 6 9491ft 111kts
11-Jan-19 16:21 35.199749 -112.305970 6 9491ft 111kts
11-Jan-19 16:22 35.230387 -112.299555 6 9491ft 111kts
11-Jan-19 16:23 35.261017 -112.293135 6 9491ft 111kts
11-Jan-19 16:24 35.291664 -112.286724 6 9491ft 111kts
11-Jan-19 16:25 35.322116 -112.280346 6 9481ft 111kts
11-Jan-19 16:26 35.352651 -112.273925 6 9481ft 111kts
11-Jan-19 16:27 35.383283 -112.267486 6 9481ft 111kts
11-Jan-19 16:28 35.413797 -112.261068 6 9481ft 111kts
11-Jan-19 16:29 35.444562 -112.254594 6 9463ft 111kts
11-Jan-19 16:30 35.475121 -112.248156 6 9463ft 111kts
11-Jan-19 16:31 35.505703 -112.241704 6 9463ft 111kts
11-Jan-19 16:32 35.535961 -112.235323 6 9464ft 111kts
11-Jan-19 16:33 35.566461 -112.228884 6 9467ft 111kts
11-Jan-19 16:34 35.596769 -112.224453 350 9471ft 110kts
11-Jan-19 16:35 35.627267 -112.226691 6 9474ft 111kts
11-Jan-19 16:36 35.658011 -112.219451 7 9487ft 115kts
11-Jan-19 16:37 35.689699 -112.211699 7 9490ft 116kts
11-Jan-19 16:38 35.721449 -112.203900 7 9490ft 117kts
11-Jan-19 16:39 35.753500 -112.196041 7 9490ft 117kts
11-Jan-19 16:40 35.785299 -112.194552 348 9371ft 114kts
11-Jan-19 16:41 35.813408 -112.173646 33 8861ft 123kts
11-Jan-19 16:42 35.842653 -112.152415 15 8354ft 121kts
11-Jan-19 16:43 35.874814 -112.139269 358 7845ft 120kts
11-Jan-19 16:44 35.907420 -112.137603 29 7486ft 115kts
11-Jan-19 16:45 35.930520 -112.112131 38 7490ft 111kts
11-Jan-19 16:46 35.954356 -112.087580 29 7793ft 109kts
11-Jan-19 16:47 35.980970 -112.071712 344 8080ft 102kts
11-Jan-19 16:48 35.990525 -112.096273 255 7684ft 76kts
11-Jan-19 16:49 35.979657 -112.118068 228 7126ft 73kts
11-Jan-19 16:50 35.965443 -112.132932 226 6813ft 68kts
11-Jan-19 16:51 35.956757 -112.141787 154 6609ft 6kts
11-Jan-19 16:52 35.956343 -112.141283 133 6611ft 0kts
11-Jan-19 16:53 35.956323 -112.141258 133 6611ft 0kts
11-Jan-19 16:54 35.956034 -112.140108 48 6617ft 4kts

Navigation Log

Ident Type
Flight plan parsing failed, navigation log unavailable